sensor_id;sensor_type;location;lat;lon;timestamp;P1;durP1;ratioP1;P2;durP2;ratioP2
23148;SDS011;11743;51.228;22.498;2022-08-16T00:00:26;14.23;;;12.70;;
23148;SDS011;11743;51.228;22.498;2022-08-16T00:00:58;15.52;;;12.73;;
23148;SDS011;11743;51.228;22.498;2022-08-16T00:01:21;15.35;;;12.90;;
23148;SDS011;11743;51.228;22.498;2022-08-16T00:01:49;16.70;;;12.70;;
23148;SDS011;11743;51.228;22.498;2022-08-16T00:02:11;15.30;;;13.00;;
23148;SDS011;11743;51.228;22.498;2022-08-16T00:02:33;14.00;;;12.50;;
23148;SDS011;11743;51.228;22.498;2022-08-16T00:02:56;13.98;;;12.48;;
23148;SDS011;11743;51.228;22.498;2022-08-16T00:03:19;14.52;;;12.88;;
23148;SDS011;11743;51.228;22.498;2022-08-16T00:03:44;14.20;;;12.70;;
23148;SDS011;11743;51.228;22.498;2022-08-16T00:04:06;14.93;;;12.30;;
23148;SDS011;11743;51.228;22.498;2022-08-16T00:04:30;16.33;;;12.82;;
23148;SDS011;11743;51.228;22.498;2022-08-16T00:04:53;14.10;;;12.43;;
23148;SDS011;11743;51.228;22.498;2022-08-16T00:05:21;14.95;;;12.48;;
23148;SDS011;11743;51.228;22.498;2022-08-16T00:05:44;13.75;;;12.07;;
23148;SDS011;11743;51.228;22.498;2022-08-16T00:06:08;13.85;;;11.98;;
23148;SDS011;11743;51.228;22.498;2022-08-16T00:06:35;13.88;;;12.18;;
23148;SDS011;11743;51.228;22.498;2022-08-16T00:07:00;17.30;;;12.50;;
23148;SDS011;11743;51.228;22.498;2022-08-16T00:07:23;18.90;;;13.00;;
23148;SDS011;11743;51.228;22.498;2022-08-16T00:07:49;15.25;;;12.18;;
23148;SDS011;11743;51.228;22.498;2022-08-16T00:08:17;17.60;;;12.40;;
23148;SDS011;11743;51.228;22.498;2022-08-16T00:08:57;15.65;;;12.68;;
23148;SDS011;11743;51.228;22.498;2022-08-16T00:09:19;14.80;;;12.43;;
23148;SDS011;11743;51.228;22.498;2022-08-16T00:09:41;13.98;;;12.57;;
23148;SDS011;11743;51.228;22.498;2022-08-16T00:10:05;14.88;;;12.27;;
23148;SDS011;11743;51.228;22.498;2022-08-16T00:10:41;15.55;;;12.65;;
23148;SDS011;11743;51.228;22.498;2022-08-16T00:11:06;15.13;;;11.87;;
23148;SDS011;11743;51.228;22.498;2022-08-16T00:11:36;13.40;;;11.95;;
23148;SDS011;11743;51.228;22.498;2022-08-16T00:11:59;17.67;;;12.63;;
23148;SDS011;11743;51.228;22.498;2022-08-16T00:12:21;15.27;;;12.38;;
23148;SDS011;11743;51.228;22.498;2022-08-16T00:12:43;14.25;;;12.18;;
23148;SDS011;11743;51.228;22.498;2022-08-16T00:13:07;14.70;;;12.32;;
23148;SDS011;11743;51.228;22.498;2022-08-16T00:13:30;14.98;;;12.35;;
23148;SDS011;11743;51.228;22.498;2022-08-16T00:14:03;15.40;;;12.38;;
23148;SDS011;11743;51.228;22.498;2022-08-16T00:14:29;16.00;;;12.05;;
23148;SDS011;11743;51.228;22.498;2022-08-16T00:14:54;13.55;;;11.80;;
23148;SDS011;11743;51.228;22.498;2022-08-16T00:15:19;14.02;;;11.88;;
23148;SDS011;11743;51.228;22.498;2022-08-16T00:16:12;15.85;;;12.15;;
23148;SDS011;11743;51.228;22.498;2022-08-16T00:16:54;15.35;;;13.00;;
23148;SDS011;11743;51.228;22.498;2022-08-16T00:17:32;13.00;;;11.68;;
23148;SDS011;11743;51.228;22.498;2022-08-16T00:18:15;15.52;;;12.70;;
23148;SDS011;11743;51.228;22.498;2022-08-16T00:18:42;15.35;;;12.55;;
23148;SDS011;11743;51.228;22.498;2022-08-16T00:19:04;15.23;;;12.10;;
23148;SDS011;11743;51.228;22.498;2022-08-16T00:19:28;15.13;;;12.40;;
23148;SDS011;11743;51.228;22.498;2022-08-16T00:20:02;14.52;;;12.80;;
23148;SDS011;11743;51.228;22.498;2022-08-16T00:20:32;16.50;;;12.68;;
23148;SDS011;11743;51.228;22.498;2022-08-16T00:20:55;15.07;;;12.23;;
23148;SDS011;11743;51.228;22.498;2022-08-16T00:21:16;12.95;;;11.52;;
23148;SDS011;11743;51.228;22.498;2022-08-16T00:21:38;16.55;;;12.30;;
23148;SDS011;11743;51.228;22.498;2022-08-16T00:22:01;16.08;;;12.45;;
23148;SDS011;11743;51.228;22.498;2022-08-16T00:22:34;14.18;;;11.95;;
23148;SDS011;11743;51.228;22.498;2022-08-16T00:23:03;14.10;;;12.60;;
23148;SDS011;11743;51.228;22.498;2022-08-16T00:23:26;14.55;;;12.75;;
23148;SDS011;11743;51.228;22.498;2022-08-16T00:23:55;14.10;;;12.38;;
23148;SDS011;11743;51.228;22.498;2022-08-16T00:24:17;14.13;;;12.60;;
23148;SDS011;11743;51.228;22.498;2022-08-16T00:24:53;13.88;;;12.25;;
23148;SDS011;11743;51.228;22.498;2022-08-16T00:25:15;16.58;;;12.18;;
23148;SDS011;11743;51.228;22.498;2022-08-16T00:25:38;16.23;;;12.55;;
23148;SDS011;11743;51.228;22.498;2022-08-16T00:26:20;13.50;;;12.10;;
23148;SDS011;11743;51.228;22.498;2022-08-16T00:27:02;15.65;;;12.63;;
23148;SDS011;11743;51.228;22.498;2022-08-16T00:27:24;14.48;;;12.35;;
23148;SDS011;11743;51.228;22.498;2022-08-16T00:27:51;14.20;;;12.48;;
23148;SDS011;11743;51.228;22.498;2022-08-16T00:28:14;13.70;;;12.30;;
23148;SDS011;11743;51.228;22.498;2022-08-16T00:28:35;14.25;;;12.52;;
23148;SDS011;11743;51.228;22.498;2022-08-16T00:28:59;15.32;;;12.35;;
23148;SDS011;11743;51.228;22.498;2022-08-16T00:29:21;15.40;;;12.48;;
23148;SDS011;11743;51.228;22.498;2022-08-16T00:29:43;14.30;;;12.40;;
23148;SDS011;11743;51.228;22.498;2022-08-16T00:30:07;14.80;;;12.13;;
23148;SDS011;11743;51.228;22.498;2022-08-16T00:30:48;13.85;;;12.43;;
23148;SDS011;11743;51.228;22.498;2022-08-16T00:31:11;13.50;;;12.10;;
23148;SDS011;11743;51.228;22.498;2022-08-16T00:31:35;15.75;;;12.48;;
23148;SDS011;11743;51.228;22.498;2022-08-16T00:32:21;14.90;;;12.25;;
23148;SDS011;11743;51.228;22.498;2022-08-16T00:32:45;16.80;;;12.20;;
23148;SDS011;11743;51.228;22.498;2022-08-16T00:33:09;16.90;;;12.27;;
23148;SDS011;11743;51.228;22.498;2022-08-16T00:33:32;13.38;;;11.98;;
23148;SDS011;11743;51.228;22.498;2022-08-16T00:33:54;14.18;;;12.68;;
23148;SDS011;11743;51.228;22.498;2022-08-16T00:34:16;13.98;;;12.35;;
23148;SDS011;11743;51.228;22.498;2022-08-16T00:34:39;16.15;;;12.52;;
23148;SDS011;11743;51.228;22.498;2022-08-16T00:35:15;13.82;;;11.98;;
23148;SDS011;11743;51.228;22.498;2022-08-16T00:35:41;14.70;;;11.98;;
23148;SDS011;11743;51.228;22.498;2022-08-16T00:36:03;13.63;;;12.23;;
23148;SDS011;11743;51.228;22.498;2022-08-16T00:36:29;14.25;;;12.80;;
23148;SDS011;11743;51.228;22.498;2022-08-16T00:36:50;15.77;;;12.52;;
23148;SDS011;11743;51.228;22.498;2022-08-16T00:37:16;14.07;;;12.50;;
23148;SDS011;11743;51.228;22.498;2022-08-16T00:37:41;14.40;;;12.70;;
23148;SDS011;11743;51.228;22.498;2022-08-16T00:38:19;15.55;;;11.93;;
23148;SDS011;11743;51.228;22.498;2022-08-16T00:39:01;14.57;;;12.00;;
23148;SDS011;11743;51.228;22.498;2022-08-16T00:39:24;14.35;;;12.15;;
23148;SDS011;11743;51.228;22.498;2022-08-16T00:39:47;15.30;;;12.38;;
23148;SDS011;11743;51.228;22.498;2022-08-16T00:40:20;16.38;;;12.27;;
23148;SDS011;11743;51.228;22.498;2022-08-16T00:40:56;14.27;;;12.45;;
23148;SDS011;11743;51.228;22.498;2022-08-16T00:41:26;15.57;;;11.93;;
23148;SDS011;11743;51.228;22.498;2022-08-16T00:41:49;14.23;;;12.13;;
23148;SDS011;11743;51.228;22.498;2022-08-16T00:42:11;15.63;;;12.70;;
23148;SDS011;11743;51.228;22.498;2022-08-16T00:42:33;14.38;;;12.75;;
23148;SDS011;11743;51.228;22.498;2022-08-16T00:42:55;17.83;;;12.70;;
23148;SDS011;11743;51.228;22.498;2022-08-16T00:43:19;14.25;;;12.30;;
23148;SDS011;11743;51.228;22.498;2022-08-16T00:43:44;14.23;;;12.48;;
23148;SDS011;11743;51.228;22.498;2022-08-16T00:44:07;16.25;;;12.68;;
23148;SDS011;11743;51.228;22.498;2022-08-16T00:44:31;15.55;;;12.40;;
23148;SDS011;11743;51.228;22.498;2022-08-16T00:44:56;14.73;;;12.40;;
23148;SDS011;11743;51.228;22.498;2022-08-16T00:46:35;14.57;;;12.02;;
23148;SDS011;11743;51.228;22.498;2022-08-16T00:47:22;15.57;;;12.33;;
23148;SDS011;11743;51.228;22.498;2022-08-16T00:47:50;16.13;;;12.93;;
23148;SDS011;11743;51.228;22.498;2022-08-16T00:48:14;16.48;;;12.60;;
23148;SDS011;11743;51.228;22.498;2022-08-16T00:48:52;14.07;;;12.27;;
23148;SDS011;11743;51.228;22.498;2022-08-16T00:49:16;14.20;;;12.32;;
23148;SDS011;11743;51.228;22.498;2022-08-16T00:49:39;14.40;;;12.20;;
23148;SDS011;11743;51.228;22.498;2022-08-16T00:50:21;13.98;;;12.32;;
23148;SDS011;11743;51.228;22.498;2022-08-16T00:50:56;14.38;;;12.68;;
23148;SDS011;11743;51.228;22.498;2022-08-16T00:51:22;16.70;;;13.00;;
23148;SDS011;11743;51.228;22.498;2022-08-16T00:51:50;14.10;;;12.60;;
23148;SDS011;11743;51.228;22.498;2022-08-16T00:52:15;14.68;;;12.45;;
23148;SDS011;11743;51.228;22.498;2022-08-16T00:52:50;15.15;;;12.45;;
23148;SDS011;11743;51.228;22.498;2022-08-16T00:53:14;13.65;;;12.27;;
23148;SDS011;11743;51.228;22.498;2022-08-16T00:53:38;14.70;;;12.35;;
23148;SDS011;11743;51.228;22.498;2022-08-16T00:54:00;15.88;;;12.93;;
23148;SDS011;11743;51.228;22.498;2022-08-16T00:54:23;15.60;;;12.93;;
23148;SDS011;11743;51.228;22.498;2022-08-16T00:54:48;15.02;;;12.88;;
23148;SDS011;11743;51.228;22.498;2022-08-16T00:55:12;13.65;;;12.25;;
23148;SDS011;11743;51.228;22.498;2022-08-16T00:55:37;15.68;;;12.30;;
23148;SDS011;11743;51.228;22.498;2022-08-16T00:56:04;14.65;;;12.38;;
23148;SDS011;11743;51.228;22.498;2022-08-16T00:56:49;17.52;;;12.82;;
23148;SDS011;11743;51.228;22.498;2022-08-16T00:57:18;16.10;;;12.93;;
23148;SDS011;11743;51.228;22.498;2022-08-16T00:57:44;14.35;;;12.55;;
23148;SDS011;11743;51.228;22.498;2022-08-16T00:58:23;13.70;;;12.20;;
23148;SDS011;11743;51.228;22.498;2022-08-16T00:58:55;14.95;;;12.43;;
23148;SDS011;11743;51.228;22.498;2022-08-16T00:59:22;14.48;;;12.73;;
23148;SDS011;11743;51.228;22.498;2022-08-16T00:59:46;15.70;;;13.05;;
23148;SDS011;11743;51.228;22.498;2022-08-16T01:00:19;13.95;;;12.55;;
23148;SDS011;11743;51.228;22.498;2022-08-16T01:00:44;13.75;;;12.18;;
23148;SDS011;11743;51.228;22.498;2022-08-16T01:01:15;16.15;;;12.52;;
23148;SDS011;11743;51.228;22.498;2022-08-16T01:01:38;15.68;;;12.80;;
23148;SDS011;11743;51.228;22.498;2022-08-16T01:02:01;15.65;;;12.85;;
23148;SDS011;11743;51.228;22.498;2022-08-16T01:02:45;15.85;;;11.98;;
23148;SDS011;11743;51.228;22.498;2022-08-16T01:03:10;15.97;;;13.07;;
23148;SDS011;11743;51.228;22.498;2022-08-16T01:03:34;15.38;;;12.70;;
23148;SDS011;11743;51.228;22.498;2022-08-16T01:04:02;16.63;;;12.70;;
23148;SDS011;11743;51.228;22.498;2022-08-16T01:04:47;14.43;;;12.53;;
23148;SDS011;11743;51.228;22.498;2022-08-16T01:05:29;14.77;;;12.82;;
23148;SDS011;11743;51.228;22.498;2022-08-16T01:05:53;15.98;;;12.65;;
23148;SDS011;11743;51.228;22.498;2022-08-16T01:06:17;17.00;;;12.90;;
23148;SDS011;11743;51.228;22.498;2022-08-16T01:07:01;16.42;;;13.43;;
23148;SDS011;11743;51.228;22.498;2022-08-16T01:07:27;15.73;;;12.32;;
23148;SDS011;11743;51.228;22.498;2022-08-16T01:08:11;15.63;;;13.13;;
23148;SDS011;11743;51.228;22.498;2022-08-16T01:08:54;16.02;;;13.30;;
23148;SDS011;11743;51.228;22.498;2022-08-16T01:09:20;15.27;;;12.88;;
23148;SDS011;11743;51.228;22.498;2022-08-16T01:09:43;16.40;;;13.20;;
23148;SDS011;11743;51.228;22.498;2022-08-16T01:10:05;15.20;;;13.60;;
23148;SDS011;11743;51.228;22.498;2022-08-16T01:10:37;14.20;;;12.60;;
23148;SDS011;11743;51.228;22.498;2022-08-16T01:11:03;14.90;;;12.75;;
23148;SDS011;11743;51.228;22.498;2022-08-16T01:11:26;15.68;;;12.80;;
23148;SDS011;11743;51.228;22.498;2022-08-16T01:11:49;16.70;;;13.38;;
23148;SDS011;11743;51.228;22.498;2022-08-16T01:12:15;15.50;;;12.93;;
23148;SDS011;11743;51.228;22.498;2022-08-16T01:12:47;16.33;;;12.90;;
23148;SDS011;11743;51.228;22.498;2022-08-16T01:13:13;14.75;;;13.25;;
23148;SDS011;11743;51.228;22.498;2022-08-16T01:13:39;15.35;;;13.73;;
23148;SDS011;11743;51.228;22.498;2022-08-16T01:14:12;15.82;;;13.30;;
23148;SDS011;11743;51.228;22.498;2022-08-16T01:14:47;14.48;;;13.00;;
23148;SDS011;11743;51.228;22.498;2022-08-16T01:15:15;18.30;;;13.80;;
23148;SDS011;11743;51.228;22.498;2022-08-16T01:15:42;17.52;;;13.43;;
23148;SDS011;11743;51.228;22.498;2022-08-16T01:16:20;17.13;;;13.15;;
23148;SDS011;11743;51.228;22.498;2022-08-16T01:16:48;17.47;;;12.90;;
23148;SDS011;11743;51.228;22.498;2022-08-16T01:17:12;15.27;;;13.10;;
23148;SDS011;11743;51.228;22.498;2022-08-16T01:17:35;15.88;;;13.38;;
23148;SDS011;11743;51.228;22.498;2022-08-16T01:18:03;15.50;;;13.15;;
23148;SDS011;11743;51.228;22.498;2022-08-16T01:18:30;16.58;;;12.95;;
23148;SDS011;11743;51.228;22.498;2022-08-16T01:19:48;15.75;;;12.60;;
23148;SDS011;11743;51.228;22.498;2022-08-16T01:20:17;18.05;;;13.65;;
23148;SDS011;11743;51.228;22.498;2022-08-16T01:20:52;15.90;;;13.65;;
23148;SDS011;11743;51.228;22.498;2022-08-16T01:21:44;16.42;;;13.52;;
23148;SDS011;11743;51.228;22.498;2022-08-16T01:22:42;15.27;;;12.90;;
23148;SDS011;11743;51.228;22.498;2022-08-16T01:23:17;17.35;;;13.93;;
23148;SDS011;11743;51.228;22.498;2022-08-16T01:24:54;17.17;;;13.88;;
23148;SDS011;11743;51.228;22.498;2022-08-16T01:25:41;15.50;;;13.02;;
23148;SDS011;11743;51.228;22.498;2022-08-16T01:26:26;15.82;;;13.88;;
23148;SDS011;11743;51.228;22.498;2022-08-16T01:27:02;15.00;;;13.40;;
23148;SDS011;11743;51.228;22.498;2022-08-16T01:27:56;17.67;;;13.90;;
23148;SDS011;11743;51.228;22.498;2022-08-16T01:28:23;15.32;;;13.07;;
23148;SDS011;11743;51.228;22.498;2022-08-16T01:28:51;16.60;;;13.50;;
23148;SDS011;11743;51.228;22.498;2022-08-16T01:29:20;17.60;;;13.95;;
23148;SDS011;11743;51.228;22.498;2022-08-16T01:30:12;18.60;;;14.25;;
23148;SDS011;11743;51.228;22.498;2022-08-16T01:30:48;15.98;;;13.45;;
23148;SDS011;11743;51.228;22.498;2022-08-16T01:31:14;16.33;;;13.55;;
23148;SDS011;11743;51.228;22.498;2022-08-16T01:31:39;16.70;;;14.18;;
23148;SDS011;11743;51.228;22.498;2022-08-16T01:32:03;15.85;;;13.85;;
23148;SDS011;11743;51.228;22.498;2022-08-16T01:32:31;16.10;;;14.13;;
23148;SDS011;11743;51.228;22.498;2022-08-16T01:32:57;19.55;;;14.50;;
23148;SDS011;11743;51.228;22.498;2022-08-16T01:33:35;15.38;;;13.77;;
23148;SDS011;11743;51.228;22.498;2022-08-16T01:34:04;16.08;;;13.75;;
23148;SDS011;11743;51.228;22.498;2022-08-16T01:34:27;18.10;;;13.73;;
23148;SDS011;11743;51.228;22.498;2022-08-16T01:34:49;15.47;;;13.67;;
23148;SDS011;11743;51.228;22.498;2022-08-16T01:35:20;19.23;;;13.98;;
23148;SDS011;11743;51.228;22.498;2022-08-16T01:35:57;16.88;;;13.75;;
23148;SDS011;11743;51.228;22.498;2022-08-16T01:36:32;16.20;;;13.93;;
23148;SDS011;11743;51.228;22.498;2022-08-16T01:36:59;16.10;;;13.88;;
23148;SDS011;11743;51.228;22.498;2022-08-16T01:37:24;16.02;;;13.80;;
23148;SDS011;11743;51.228;22.498;2022-08-16T01:37:48;14.98;;;13.38;;
23148;SDS011;11743;51.228;22.498;2022-08-16T01:38:31;16.85;;;13.98;;
23148;SDS011;11743;51.228;22.498;2022-08-16T01:38:58;16.90;;;13.85;;
23148;SDS011;11743;51.228;22.498;2022-08-16T01:39:21;16.65;;;13.95;;
23148;SDS011;11743;51.228;22.498;2022-08-16T01:39:43;17.73;;;13.95;;
23148;SDS011;11743;51.228;22.498;2022-08-16T01:40:06;15.98;;;14.25;;
23148;SDS011;11743;51.228;22.498;2022-08-16T01:40:29;16.73;;;13.70;;
23148;SDS011;11743;51.228;22.498;2022-08-16T01:40:52;17.00;;;13.55;;
23148;SDS011;11743;51.228;22.498;2022-08-16T01:41:27;15.45;;;13.85;;
23148;SDS011;11743;51.228;22.498;2022-08-16T01:41:51;17.05;;;14.20;;
23148;SDS011;11743;51.228;22.498;2022-08-16T01:42:13;15.63;;;14.02;;
23148;SDS011;11743;51.228;22.498;2022-08-16T01:42:40;15.77;;;14.18;;
23148;SDS011;11743;51.228;22.498;2022-08-16T01:43:08;16.42;;;14.38;;
23148;SDS011;11743;51.228;22.498;2022-08-16T01:43:30;16.45;;;13.88;;
23148;SDS011;11743;51.228;22.498;2022-08-16T01:43:53;17.08;;;13.88;;
23148;SDS011;11743;51.228;22.498;2022-08-16T01:44:20;16.25;;;14.25;;
23148;SDS011;11743;51.228;22.498;2022-08-16T01:44:57;16.15;;;14.38;;
23148;SDS011;11743;51.228;22.498;2022-08-16T01:45:20;17.20;;;14.18;;
23148;SDS011;11743;51.228;22.498;2022-08-16T01:45:42;16.73;;;13.80;;
23148;SDS011;11743;51.228;22.498;2022-08-16T01:46:08;16.17;;;13.77;;
23148;SDS011;11743;51.228;22.498;2022-08-16T01:46:59;16.08;;;13.63;;
23148;SDS011;11743;51.228;22.498;2022-08-16T01:47:21;16.77;;;14.32;;
23148;SDS011;11743;51.228;22.498;2022-08-16T01:47:45;16.73;;;14.45;;
23148;SDS011;11743;51.228;22.498;2022-08-16T01:48:11;16.63;;;14.40;;
23148;SDS011;11743;51.228;22.498;2022-08-16T01:48:40;17.70;;;13.38;;
23148;SDS011;11743;51.228;22.498;2022-08-16T01:49:10;16.38;;;13.88;;
23148;SDS011;11743;51.228;22.498;2022-08-16T01:49:35;18.33;;;14.63;;
23148;SDS011;11743;51.228;22.498;2022-08-16T01:50:20;15.90;;;13.80;;
23148;SDS011;11743;51.228;22.498;2022-08-16T01:51:03;18.10;;;14.25;;
23148;SDS011;11743;51.228;22.498;2022-08-16T01:51:37;15.52;;;13.75;;
23148;SDS011;11743;51.228;22.498;2022-08-16T01:52:08;19.90;;;14.73;;
23148;SDS011;11743;51.228;22.498;2022-08-16T01:52:50;17.25;;;14.07;;
23148;SDS011;11743;51.228;22.498;2022-08-16T01:53:14;17.88;;;14.02;;
23148;SDS011;11743;51.228;22.498;2022-08-16T01:53:35;15.60;;;14.02;;
23148;SDS011;11743;51.228;22.498;2022-08-16T01:54:01;16.45;;;14.60;;
23148;SDS011;11743;51.228;22.498;2022-08-16T01:54:23;18.25;;;14.77;;
23148;SDS011;11743;51.228;22.498;2022-08-16T01:54:51;16.63;;;14.82;;
23148;SDS011;11743;51.228;22.498;2022-08-16T01:55:15;16.70;;;14.20;;
23148;SDS011;11743;51.228;22.498;2022-08-16T01:55:38;17.05;;;14.52;;
23148;SDS011;11743;51.228;22.498;2022-08-16T01:56:01;19.20;;;14.30;;
23148;SDS011;11743;51.228;22.498;2022-08-16T01:56:24;18.70;;;14.63;;
23148;SDS011;11743;51.228;22.498;2022-08-16T01:56:46;16.65;;;14.43;;
23148;SDS011;11743;51.228;22.498;2022-08-16T01:57:09;17.10;;;14.20;;
23148;SDS011;11743;51.228;22.498;2022-08-16T01:57:31;17.75;;;14.57;;
23148;SDS011;11743;51.228;22.498;2022-08-16T01:57:56;16.83;;;14.38;;
23148;SDS011;11743;51.228;22.498;2022-08-16T01:58:19;16.52;;;14.07;;
23148;SDS011;11743;51.228;22.498;2022-08-16T01:58:42;16.00;;;14.30;;
23148;SDS011;11743;51.228;22.498;2022-08-16T01:59:09;17.13;;;14.57;;
23148;SDS011;11743;51.228;22.498;2022-08-16T01:59:38;16.58;;;14.75;;
23148;SDS011;11743;51.228;22.498;2022-08-16T02:00:04;17.05;;;15.15;;
23148;SDS011;11743;51.228;22.498;2022-08-16T02:00:39;16.65;;;14.68;;
23148;SDS011;11743;51.228;22.498;2022-08-16T02:01:03;16.15;;;14.55;;
23148;SDS011;11743;51.228;22.498;2022-08-16T02:01:28;17.33;;;14.50;;
23148;SDS011;11743;51.228;22.498;2022-08-16T02:01:52;16.88;;;14.25;;
23148;SDS011;11743;51.228;22.498;2022-08-16T02:02:21;17.02;;;14.32;;
23148;SDS011;11743;51.228;22.498;2022-08-16T02:02:49;17.98;;;14.32;;
23148;SDS011;11743;51.228;22.498;2022-08-16T02:03:14;16.58;;;14.68;;
23148;SDS011;11743;51.228;22.498;2022-08-16T02:03:36;15.95;;;14.30;;
23148;SDS011;11743;51.228;22.498;2022-08-16T02:04:00;17.20;;;14.95;;
23148;SDS011;11743;51.228;22.498;2022-08-16T02:04:32;16.05;;;14.13;;
23148;SDS011;11743;51.228;22.498;2022-08-16T02:05:15;20.33;;;14.80;;
23148;SDS011;11743;51.228;22.498;2022-08-16T02:05:38;17.75;;;14.57;;
23148;SDS011;11743;51.228;22.498;2022-08-16T02:06:11;17.90;;;14.82;;
23148;SDS011;11743;51.228;22.498;2022-08-16T02:06:53;18.63;;;14.70;;
23148;SDS011;11743;51.228;22.498;2022-08-16T02:07:16;16.38;;;14.65;;
23148;SDS011;11743;51.228;22.498;2022-08-16T02:07:44;18.58;;;14.50;;
23148;SDS011;11743;51.228;22.498;2022-08-16T02:08:07;17.15;;;14.75;;
23148;SDS011;11743;51.228;22.498;2022-08-16T02:08:49;18.30;;;14.73;;
23148;SDS011;11743;51.228;22.498;2022-08-16T02:09:12;18.75;;;14.38;;
23148;SDS011;11743;51.228;22.498;2022-08-16T02:09:38;19.60;;;14.55;;
23148;SDS011;11743;51.228;22.498;2022-08-16T02:10:00;16.77;;;14.52;;
23148;SDS011;11743;51.228;22.498;2022-08-16T02:10:24;16.75;;;14.48;;
23148;SDS011;11743;51.228;22.498;2022-08-16T02:10:46;17.50;;;15.30;;
23148;SDS011;11743;51.228;22.498;2022-08-16T02:11:08;17.02;;;15.20;;
23148;SDS011;11743;51.228;22.498;2022-08-16T02:11:30;17.20;;;14.07;;
23148;SDS011;11743;51.228;22.498;2022-08-16T02:12:13;17.48;;;14.95;;
23148;SDS011;11743;51.228;22.498;2022-08-16T02:12:56;20.02;;;14.80;;
23148;SDS011;11743;51.228;22.498;2022-08-16T02:13:20;18.48;;;14.13;;
23148;SDS011;11743;51.228;22.498;2022-08-16T02:13:47;15.95;;;14.27;;
23148;SDS011;11743;51.228;22.498;2022-08-16T02:14:15;17.67;;;14.55;;
23148;SDS011;11743;51.228;22.498;2022-08-16T02:14:38;18.75;;;15.23;;
23148;SDS011;11743;51.228;22.498;2022-08-16T02:15:01;19.00;;;14.52;;
23148;SDS011;11743;51.228;22.498;2022-08-16T02:15:26;16.08;;;14.25;;
23148;SDS011;11743;51.228;22.498;2022-08-16T02:15:49;17.40;;;14.73;;
23148;SDS011;11743;51.228;22.498;2022-08-16T02:16:12;16.90;;;14.77;;
23148;SDS011;11743;51.228;22.498;2022-08-16T02:16:39;17.00;;;14.85;;
23148;SDS011;11743;51.228;22.498;2022-08-16T02:17:06;16.40;;;14.60;;
23148;SDS011;11743;51.228;22.498;2022-08-16T02:17:30;16.58;;;14.73;;
23148;SDS011;11743;51.228;22.498;2022-08-16T02:17:56;16.25;;;14.25;;
23148;SDS011;11743;51.228;22.498;2022-08-16T02:18:21;16.30;;;14.40;;
23148;SDS011;11743;51.228;22.498;2022-08-16T02:18:44;16.63;;;14.93;;
23148;SDS011;11743;51.228;22.498;2022-08-16T02:19:06;17.10;;;15.23;;
23148;SDS011;11743;51.228;22.498;2022-08-16T02:19:38;18.30;;;14.95;;
23148;SDS011;11743;51.228;22.498;2022-08-16T02:20:20;19.50;;;14.55;;
23148;SDS011;11743;51.228;22.498;2022-08-16T02:20:48;17.00;;;14.18;;
23148;SDS011;11743;51.228;22.498;2022-08-16T02:21:14;19.30;;;14.85;;
23148;SDS011;11743;51.228;22.498;2022-08-16T02:21:36;18.13;;;15.00;;
23148;SDS011;11743;51.228;22.498;2022-08-16T02:22:21;16.00;;;14.40;;
23148;SDS011;11743;51.228;22.498;2022-08-16T02:23:06;18.35;;;14.50;;
23148;SDS011;11743;51.228;22.498;2022-08-16T02:23:29;18.10;;;15.13;;
23148;SDS011;11743;51.228;22.498;2022-08-16T02:23:52;17.27;;;14.68;;
23148;SDS011;11743;51.228;22.498;2022-08-16T02:24:16;18.25;;;14.75;;
23148;SDS011;11743;51.228;22.498;2022-08-16T02:24:57;16.85;;;14.45;;
23148;SDS011;11743;51.228;22.498;2022-08-16T02:25:22;17.95;;;14.02;;
23148;SDS011;11743;51.228;22.498;2022-08-16T02:26:05;16.33;;;14.18;;
23148;SDS011;11743;51.228;22.498;2022-08-16T02:26:27;16.75;;;14.10;;
23148;SDS011;11743;51.228;22.498;2022-08-16T02:26:54;14.90;;;13.43;;
23148;SDS011;11743;51.228;22.498;2022-08-16T02:27:18;17.52;;;14.60;;
23148;SDS011;11743;51.228;22.498;2022-08-16T02:27:41;20.10;;;15.10;;
23148;SDS011;11743;51.228;22.498;2022-08-16T02:28:10;17.55;;;14.48;;
23148;SDS011;11743;51.228;22.498;2022-08-16T02:28:37;18.00;;;14.88;;
23148;SDS011;11743;51.228;22.498;2022-08-16T02:29:07;16.73;;;14.93;;
23148;SDS011;11743;51.228;22.498;2022-08-16T02:29:33;18.85;;;14.70;;
23148;SDS011;11743;51.228;22.498;2022-08-16T02:29:55;19.13;;;14.65;;
23148;SDS011;11743;51.228;22.498;2022-08-16T02:30:26;16.65;;;14.18;;
23148;SDS011;11743;51.228;22.498;2022-08-16T02:31:05;17.20;;;15.20;;
23148;SDS011;11743;51.228;22.498;2022-08-16T02:31:31;17.10;;;14.80;;
23148;SDS011;11743;51.228;22.498;2022-08-16T02:32:13;19.40;;;14.65;;
23148;SDS011;11743;51.228;22.498;2022-08-16T02:32:57;19.20;;;14.93;;
23148;SDS011;11743;51.228;22.498;2022-08-16T02:33:20;18.15;;;14.93;;
23148;SDS011;11743;51.228;22.498;2022-08-16T02:34:02;19.48;;;15.52;;
23148;SDS011;11743;51.228;22.498;2022-08-16T02:34:26;18.40;;;14.90;;
23148;SDS011;11743;51.228;22.498;2022-08-16T02:35:00;16.05;;;14.35;;
23148;SDS011;11743;51.228;22.498;2022-08-16T02:35:23;17.50;;;15.02;;
23148;SDS011;11743;51.228;22.498;2022-08-16T02:35:45;17.17;;;14.85;;
23148;SDS011;11743;51.228;22.498;2022-08-16T02:36:15;16.40;;;14.55;;
23148;SDS011;11743;51.228;22.498;2022-08-16T02:36:57;17.63;;;15.25;;
23148;SDS011;11743;51.228;22.498;2022-08-16T02:37:19;17.45;;;15.05;;
23148;SDS011;11743;51.228;22.498;2022-08-16T02:37:42;17.35;;;14.80;;
23148;SDS011;11743;51.228;22.498;2022-08-16T02:38:13;16.15;;;14.05;;
23148;SDS011;11743;51.228;22.498;2022-08-16T02:38:36;15.68;;;14.05;;
23148;SDS011;11743;51.228;22.498;2022-08-16T02:38:59;17.30;;;15.15;;
23148;SDS011;11743;51.228;22.498;2022-08-16T02:39:23;16.50;;;13.82;;
23148;SDS011;11743;51.228;22.498;2022-08-16T02:39:50;19.40;;;15.02;;
23148;SDS011;11743;51.228;22.498;2022-08-16T02:40:14;19.52;;;15.20;;
23148;SDS011;11743;51.228;22.498;2022-08-16T02:40:37;20.80;;;15.50;;
23148;SDS011;11743;51.228;22.498;2022-08-16T02:41:02;20.70;;;14.90;;
23148;SDS011;11743;51.228;22.498;2022-08-16T02:41:31;20.25;;;15.27;;
23148;SDS011;11743;51.228;22.498;2022-08-16T02:41:59;18.23;;;15.15;;
23148;SDS011;11743;51.228;22.498;2022-08-16T02:42:21;17.10;;;14.93;;
23148;SDS011;11743;51.228;22.498;2022-08-16T02:42:44;17.48;;;14.85;;
23148;SDS011;11743;51.228;22.498;2022-08-16T02:43:10;17.17;;;15.20;;
23148;SDS011;11743;51.228;22.498;2022-08-16T02:43:32;18.33;;;15.07;;
23148;SDS011;11743;51.228;22.498;2022-08-16T02:43:57;17.30;;;15.27;;
23148;SDS011;11743;51.228;22.498;2022-08-16T02:44:21;17.77;;;15.45;;
23148;SDS011;11743;51.228;22.498;2022-08-16T02:44:47;16.77;;;14.98;;
23148;SDS011;11743;51.228;22.498;2022-08-16T02:45:09;18.55;;;15.00;;
23148;SDS011;11743;51.228;22.498;2022-08-16T02:45:32;17.55;;;14.68;;
23148;SDS011;11743;51.228;22.498;2022-08-16T02:45:57;16.15;;;14.30;;
23148;SDS011;11743;51.228;22.498;2022-08-16T02:46:20;17.27;;;15.30;;